Overview Statistics Trail Chart Weather Telemetry Raw packets
 

This is the latest recevied weather packets stored in our database for station/object MeshWX-1. If no packets are shown the sender has not sent any weather packets the latest 10 day(s).

<< 27 28 29 30 31 32 33 >>
Time Temp. Humidity Pressure Rain* Wind** Luminosity Snow
1787983309 22.22° C 56% 1002.3 hPa - - - -
1787983248 22.22° C 56% 1002.3 hPa - - - -
1787982822 22.22° C 56% 1002.3 hPa - - - -
1787981150 18.89° C 63% 1002.1 hPa - - - -
1787981099 18.89° C 63% 1002.1 hPa - - - -
1787980730 18.89° C 63% 1002.1 hPa - - - -
1787980679 18.89° C 63% 1002.1 hPa - - - -
1787978988 15.56° C 69% 1002 hPa - - - -
1787978928 15.56° C 69% 1002 hPa - - - -
1787978573 15.56° C 69% 1002 hPa - - - -
1787976898 15° C 70% 1001.8 hPa - - - -
1787976828 15° C 70% 1001.8 hPa - - - -
1787976517 15° C 69% 1001.9 hPa - - - -
1787974788 15° C 69% 1001.9 hPa - - - -
1787974730 15° C 69% 1001.9 hPa - - - -
1787974433 15° C 69% 1001.9 hPa - - - -
1787972686 15° C 67% 1001.8 hPa - - - -
1787972399 15° C 67% 1001.8 hPa - - - -
1787972342 16.11° C 66% 1001.9 hPa - - - -
1787970646 16.11° C 66% 1001.9 hPa - - - -
1787970419 16.11° C 66% 1001.9 hPa - - - -
1787968667 16.67° C 64% 1001.7 hPa - - - -
1787968438 16.67° C 64% 1001.7 hPa - - - -
1787968378 17.22° C 63% 1001.7 hPa - - - -
1787966626 17.22° C 63% 1001.7 hPa - - - -

* Rain since midnight (hover to see other rain measurements)
** Current wind speed in m/s (hover to see current wind gust speed)